createdAt,value
2023-04-09T00:00:30.885Z,16.9197
2023-04-09T00:01:32.527Z,16.7639
2023-04-09T00:02:34.134Z,16.5913
2023-04-09T00:03:35.975Z,16.4783
2023-04-09T00:04:37.512Z,16.4497
2023-04-09T00:05:39.045Z,16.6175
2023-04-09T00:06:40.729Z,16.6707
2023-04-09T00:07:44.498Z,16.6578
2023-04-09T00:08:44.001Z,16.6042
2023-04-09T00:09:45.795Z,16.5100
2023-04-09T00:10:47.419Z,16.4367
2023-04-09T00:11:49.014Z,16.3627
2023-04-09T00:12:50.658Z,16.3837
2023-04-09T00:13:52.355Z,16.4679
2023-04-09T00:14:53.949Z,16.4949
2023-04-09T00:15:55.639Z,16.4837
2023-04-09T00:16:57.327Z,16.4509
2023-04-09T00:17:58.941Z,16.4020
2023-04-09T00:19:00.566Z,16.4037
2023-04-09T00:20:02.230Z,16.3694
2023-04-09T00:21:03.874Z,16.3296
2023-04-09T00:22:05.538Z,16.2870
2023-04-09T00:23:07.217Z,16.2733
2023-04-09T00:24:08.741Z,16.2332
2023-04-09T00:25:10.451Z,16.1724
2023-04-09T00:26:12.178Z,16.1318
2023-04-09T00:27:13.870Z,16.1008
2023-04-09T00:28:15.471Z,16.1157
2023-04-09T00:29:17.208Z,16.1390
2023-04-09T00:30:18.800Z,16.1597
2023-04-09T00:31:20.877Z,16.1760
2023-04-09T00:32:22.075Z,16.1584
2023-04-09T00:33:23.652Z,16.1754
2023-04-09T00:34:25.336Z,16.2135
2023-04-09T00:35:26.974Z,16.2284
2023-04-09T00:36:28.728Z,16.2217
2023-04-09T00:37:30.315Z,16.2071
2023-04-09T00:38:31.999Z,16.1951
2023-04-09T00:39:33.621Z,16.1661
2023-04-09T00:40:35.255Z,16.1879
2023-04-09T00:41:37.009Z,16.2084
2023-04-09T00:42:38.590Z,16.2449
2023-04-09T00:43:40.274Z,16.2806
2023-04-09T00:44:41.810Z,16.3027
2023-04-09T00:45:43.536Z,16.3021
2023-04-09T00:46:45.106Z,16.2951
2023-04-09T00:47:47.383Z,16.2582
2023-04-09T00:48:48.510Z,16.2508
2023-04-09T00:49:50.179Z,16.2301
2023-04-09T00:50:51.748Z,16.2417
2023-04-09T00:51:53.387Z,16.2246
2023-04-09T00:52:55.154Z,16.2262
2023-04-09T00:53:56.788Z,16.2244
2023-04-09T00:54:58.439Z,16.2230
2023-04-09T00:56:00.031Z,16.2243
2023-04-09T00:57:01.678Z,16.1698
2023-04-09T00:58:03.432Z,16.1279
2023-04-09T00:59:05.370Z,16.1509
2023-04-09T01:00:06.718Z,16.2479
2023-04-09T01:01:08.398Z,16.3459
2023-04-09T01:02:10.922Z,16.3697
2023-04-09T01:03:12.029Z,16.3562
2023-04-09T01:04:13.346Z,16.3190
2023-04-09T01:05:14.928Z,16.3423
2023-04-09T01:06:16.538Z,16.5198
2023-04-09T01:07:18.281Z,16.6449
2023-04-09T01:08:20.103Z,16.6456
2023-04-09T01:09:21.565Z,16.5244
2023-04-09T01:10:23.206Z,16.3760
2023-04-09T01:11:24.982Z,16.2531
2023-04-09T01:12:26.511Z,16.3695
2023-04-09T01:13:28.223Z,16.5839
2023-04-09T01:14:29.940Z,16.6469
2023-04-09T01:15:31.524Z,16.5893
2023-04-09T01:16:33.136Z,16.4552
2023-04-09T01:17:34.892Z,16.3378
2023-04-09T01:18:36.505Z,16.2556
2023-04-09T01:19:38.124Z,16.3996
2023-04-09T01:20:39.828Z,16.5162
2023-04-09T01:21:41.423Z,16.5196
2023-04-09T01:22:43.078Z,16.4606
2023-04-09T01:23:44.791Z,16.3953
2023-04-09T01:24:46.398Z,16.3216
2023-04-09T01:25:48.068Z,16.4039
2023-04-09T01:26:49.701Z,16.5564
2023-04-09T01:27:51.345Z,16.5771
2023-04-09T01:28:53.459Z,16.5403
2023-04-09T01:29:54.675Z,16.4381
2023-04-09T01:30:56.455Z,16.3377
2023-04-09T01:31:57.966Z,16.2882
2023-04-09T01:33:00.036Z,16.4106
2023-04-09T01:34:01.414Z,16.5479
2023-04-09T01:35:02.905Z,16.5596
2023-04-09T01:36:04.719Z,16.5136
2023-04-09T01:37:06.294Z,16.4318
2023-04-09T01:38:07.898Z,16.3495
2023-04-09T01:39:09.611Z,16.4236
2023-04-09T01:40:11.340Z,16.6160
2023-04-09T01:41:12.763Z,16.6347
2023-04-09T01:42:14.450Z,16.5900
2023-04-09T01:43:16.089Z,16.4864
2023-04-09T01:44:17.733Z,16.4031
2023-04-09T01:45:19.460Z,16.3680
2023-04-09T01:46:21.134Z,16.4998
2023-04-09T01:47:22.701Z,16.5762
2023-04-09T01:48:24.355Z,16.5705
2023-04-09T01:49:26.155Z,16.4852
2023-04-09T01:50:27.827Z,16.3522
2023-04-09T01:51:29.362Z,16.2570
2023-04-09T01:52:31.778Z,16.3392
2023-04-09T01:53:32.756Z,16.5340
2023-04-09T01:54:34.509Z,16.5718
2023-04-09T01:55:36.046Z,16.5606
2023-04-09T01:56:37.760Z,16.4791
2023-04-09T01:57:39.326Z,16.3739
2023-04-09T01:58:41.040Z,16.2709
2023-04-09T01:59:42.646Z,16.4289
2023-04-09T02:00:45.286Z,16.6065
2023-04-09T02:01:46.966Z,16.6335
2023-04-09T02:02:47.749Z,16.5925
2023-04-09T02:03:49.389Z,16.4794
2023-04-09T02:04:51.165Z,16.3917
2023-04-09T02:05:52.939Z,16.3804
2023-04-09T02:06:54.257Z,16.4966
2023-04-09T02:07:55.895Z,16.5221
2023-04-09T02:08:57.613Z,16.5022
2023-04-09T02:09:59.283Z,16.3458
2023-04-09T02:11:00.840Z,16.1509
2023-04-09T02:12:02.542Z,16.0986
2023-04-09T02:13:04.157Z,16.4593
2023-04-09T02:14:05.990Z,16.7156
2023-04-09T02:15:07.595Z,16.7265
2023-04-09T02:16:09.178Z,16.6123
2023-04-09T02:17:10.796Z,16.4457
2023-04-09T02:18:12.451Z,16.3409
2023-04-09T02:19:14.076Z,16.3808
2023-04-09T02:20:15.820Z,16.7695
2023-04-09T02:21:17.353Z,16.8364
2023-04-09T02:22:19.019Z,16.7716
2023-04-09T02:23:20.728Z,16.6286
2023-04-09T02:24:22.447Z,16.4658
2023-04-09T02:25:24.078Z,16.3451
2023-04-09T02:26:25.642Z,16.4285
2023-04-09T02:27:27.406Z,16.6363
2023-04-09T02:28:29.049Z,16.6667
2023-04-09T02:29:30.649Z,16.6154
2023-04-09T02:30:32.343Z,16.5067
2023-04-09T02:31:34.023Z,16.4155
2023-04-09T02:32:35.744Z,16.3721
2023-04-09T02:33:37.353Z,16.5327
2023-04-09T02:34:39.059Z,16.6170
2023-04-09T02:35:40.670Z,16.6254
2023-04-09T02:36:42.334Z,16.5613
2023-04-09T02:37:44.014Z,16.4234
2023-04-09T02:38:45.604Z,16.2992
2023-04-09T02:39:47.406Z,16.3147
2023-04-09T02:40:48.948Z,16.5097
2023-04-09T02:41:50.642Z,16.6102
2023-04-09T02:42:52.172Z,16.6092
2023-04-09T02:43:53.910Z,16.5265
2023-04-09T02:44:55.577Z,16.4130
2023-04-09T02:45:57.459Z,16.3217
2023-04-09T02:46:58.780Z,16.3940
2023-04-09T02:48:00.501Z,16.5292
2023-04-09T02:49:02.858Z,16.5601
2023-04-09T02:50:03.897Z,16.5384
2023-04-09T02:51:05.597Z,16.4460
2023-04-09T02:52:07.114Z,16.3739
2023-04-09T02:53:08.894Z,16.3925
2023-04-09T02:54:10.412Z,17.0930
2023-04-09T02:55:12.069Z,17.7688
2023-04-09T02:56:13.815Z,18.3695
2023-04-09T02:57:15.261Z,18.6378
2023-04-09T02:58:16.992Z,18.7931
2023-04-09T02:59:18.727Z,18.7535
2023-04-09T03:00:20.348Z,18.6013
2023-04-09T03:01:22.135Z,18.4602
2023-04-09T03:02:23.818Z,18.3278
2023-04-09T03:03:26.040Z,18.2233
2023-04-09T03:04:26.980Z,18.1901
2023-04-09T03:05:28.520Z,18.1905
2023-04-09T03:06:30.294Z,18.1848
2023-04-09T03:07:31.856Z,18.1559
2023-04-09T03:08:33.504Z,18.1803
2023-04-09T03:09:35.157Z,18.2049
2023-04-09T03:10:36.820Z,18.1993
2023-04-09T03:11:38.536Z,18.1643
2023-04-09T03:12:40.128Z,18.1347
2023-04-09T03:13:41.820Z,18.2356
2023-04-09T03:14:43.483Z,18.2701
2023-04-09T03:15:45.125Z,18.2738
2023-04-09T03:16:46.781Z,18.2560
2023-04-09T03:17:48.433Z,18.2404
2023-04-09T03:18:50.256Z,18.2553
2023-04-09T03:19:51.686Z,18.2893
2023-04-09T03:20:53.341Z,18.3110
2023-04-09T03:21:55.031Z,18.2928
2023-04-09T03:22:56.638Z,18.2619
2023-04-09T03:23:58.321Z,18.3065
2023-04-09T03:24:59.983Z,18.3833
2023-04-09T03:26:01.616Z,18.3974
2023-04-09T03:27:03.362Z,18.3883
2023-04-09T03:28:04.876Z,18.3680
2023-04-09T03:29:06.616Z,18.3529
2023-04-09T03:30:08.235Z,18.3301
2023-04-09T03:31:09.964Z,18.3054
2023-04-09T03:32:11.545Z,18.2802
2023-04-09T03:33:13.187Z,18.3170
2023-04-09T03:34:14.836Z,18.3846
2023-04-09T03:35:16.464Z,18.3994
2023-04-09T03:36:18.091Z,18.3952
2023-04-09T03:37:19.818Z,18.3780
2023-04-09T03:38:21.408Z,18.3457
2023-04-09T03:39:23.121Z,18.3246
2023-04-09T03:40:24.740Z,18.3905
2023-04-09T03:41:26.469Z,18.4416
2023-04-09T03:42:27.998Z,18.4762
2023-04-09T03:43:29.703Z,18.4755
2023-04-09T03:44:31.954Z,18.4588
2023-04-09T03:45:33.017Z,18.4167
2023-04-09T03:46:34.750Z,18.4032
2023-04-09T03:47:36.354Z,18.4748
2023-04-09T03:48:38.009Z,18.5016
2023-04-09T03:49:39.614Z,18.5074
2023-04-09T03:50:41.252Z,18.4929
2023-04-09T03:51:42.937Z,18.4744
2023-04-09T03:52:44.651Z,18.4369
2023-04-09T03:53:46.335Z,18.4336
2023-04-09T03:54:47.962Z,18.4700
2023-04-09T03:55:49.626Z,18.4855
2023-04-09T03:56:52.068Z,18.4727
2023-04-09T03:57:52.934Z,18.4589
2023-04-09T03:58:54.881Z,18.4488
2023-04-09T03:59:56.248Z,18.4749
2023-04-09T04:00:57.769Z,18.5288
2023-04-09T04:01:59.549Z,18.5604
2023-04-09T04:03:01.372Z,18.5627
2023-04-09T04:04:02.941Z,18.5438
2023-04-09T04:05:04.493Z,18.5183
2023-04-09T04:06:06.160Z,18.4908
2023-04-09T04:07:07.804Z,18.5285
2023-04-09T04:08:09.423Z,18.5641
2023-04-09T04:09:11.023Z,18.5646
2023-04-09T04:10:12.794Z,18.5548
2023-04-09T04:11:14.374Z,18.5363
2023-04-09T04:12:16.020Z,18.5129
2023-04-09T04:13:17.707Z,18.5421
2023-04-09T04:14:19.355Z,18.5808
2023-04-09T04:15:21.044Z,18.6035
2023-04-09T04:16:22.697Z,18.5930
2023-04-09T04:17:24.341Z,18.5710
2023-04-09T04:18:25.957Z,18.5388
2023-04-09T04:19:27.614Z,18.5436
2023-04-09T04:20:29.244Z,18.5657
2023-04-09T04:21:30.919Z,18.5949
2023-04-09T04:22:32.602Z,18.6034
2023-04-09T04:23:34.250Z,18.6014
2023-04-09T04:24:35.901Z,18.5789
2023-04-09T04:25:37.541Z,18.5561
2023-04-09T04:26:39.229Z,18.6068
2023-04-09T04:27:40.893Z,18.6651
2023-04-09T04:28:42.556Z,18.6953
2023-04-09T04:29:44.141Z,18.6974
2023-04-09T04:30:45.867Z,18.6770
2023-04-09T04:31:47.497Z,18.6495
2023-04-09T04:32:49.097Z,18.6133
2023-04-09T04:33:50.782Z,18.5723
2023-04-09T04:34:52.425Z,18.5569
2023-04-09T04:35:54.144Z,18.6441
2023-04-09T04:36:55.633Z,18.6978
2023-04-09T04:37:57.399Z,18.7206
2023-04-09T04:38:59.067Z,18.7033
2023-04-09T04:40:00.666Z,18.6670
2023-04-09T04:41:02.306Z,18.6321
2023-04-09T04:42:03.947Z,18.6092
2023-04-09T04:43:05.665Z,18.6753
2023-04-09T04:44:07.311Z,18.7353
2023-04-09T04:45:09.052Z,18.7362
2023-04-09T04:46:10.622Z,18.6855
2023-04-09T04:47:12.244Z,18.6331
2023-04-09T04:48:13.917Z,18.5908
2023-04-09T04:49:16.324Z,18.6993
2023-04-09T04:50:17.256Z,18.7815
2023-04-09T04:51:18.841Z,18.7532
2023-04-09T04:52:20.475Z,18.6755
2023-04-09T04:53:22.139Z,18.5645
2023-04-09T04:54:23.842Z,18.6944
2023-04-09T04:55:26.505Z,18.7865
2023-04-09T04:56:27.114Z,18.8125
2023-04-09T04:57:28.939Z,18.7965
2023-04-09T04:58:30.423Z,18.7326
2023-04-09T04:59:32.200Z,18.6631
2023-04-09T05:00:33.734Z,18.6079
2023-04-09T05:01:35.418Z,18.5794
2023-04-09T05:02:37.186Z,18.5682
2023-04-09T05:03:38.779Z,18.5501
2023-04-09T05:04:40.392Z,18.5169
2023-04-09T05:05:42.002Z,18.5050
2023-04-09T05:06:43.662Z,18.4943
2023-04-09T05:07:45.306Z,18.4507
2023-04-09T05:08:47.009Z,18.4140
2023-04-09T05:09:48.626Z,18.3952
2023-04-09T05:10:50.220Z,18.3709
2023-04-09T05:11:51.930Z,18.3763
2023-04-09T05:12:53.611Z,18.3970
2023-04-09T05:13:55.186Z,18.3980
2023-04-09T05:14:56.986Z,18.4010
2023-04-09T05:15:58.630Z,18.3975
2023-04-09T05:17:00.216Z,18.4108
2023-04-09T05:18:01.925Z,18.4277
2023-04-09T05:19:03.528Z,18.4516
2023-04-09T05:20:05.949Z,18.4622
2023-04-09T05:21:07.457Z,18.4545
2023-04-09T05:22:08.464Z,18.4656
2023-04-09T05:23:10.082Z,18.4758
2023-04-09T05:24:11.737Z,18.5056
2023-04-09T05:25:13.410Z,18.5424
2023-04-09T05:26:14.995Z,18.5693
2023-04-09T05:27:16.722Z,18.5671
2023-04-09T05:28:18.434Z,18.5405
2023-04-09T05:29:20.058Z,18.5135
2023-04-09T05:30:21.724Z,18.4668
2023-04-09T05:31:23.257Z,18.4356
2023-04-09T05:32:25.221Z,18.4644
2023-04-09T05:33:26.679Z,18.4903
2023-04-09T05:34:28.265Z,18.5245
2023-04-09T05:35:29.983Z,18.5585
2023-04-09T05:36:31.577Z,18.5840
2023-04-09T05:37:33.499Z,18.6060
2023-04-09T05:38:34.965Z,18.6207
2023-04-09T05:39:37.502Z,18.6348
2023-04-09T05:40:38.298Z,18.6171
2023-04-09T05:41:39.857Z,18.5539
2023-04-09T05:42:41.537Z,18.4953
2023-04-09T05:43:43.439Z,18.4584
2023-04-09T05:44:44.857Z,18.5420
2023-04-09T05:45:46.718Z,18.7134
2023-04-09T05:46:48.189Z,18.8537
2023-04-09T05:47:49.824Z,18.9067
2023-04-09T05:48:51.595Z,18.8669
2023-04-09T05:49:53.246Z,18.7664
2023-04-09T05:50:55.841Z,18.7984
2023-04-09T05:51:56.517Z,18.9343
2023-04-09T05:52:58.191Z,19.0768
2023-04-09T05:53:59.858Z,19.1440
2023-04-09T05:55:01.492Z,19.1043
2023-04-09T05:56:03.126Z,19.0091
2023-04-09T05:57:04.811Z,18.9870
2023-04-09T05:58:06.499Z,19.0588
2023-04-09T05:59:07.995Z,19.1590
2023-04-09T06:00:10.102Z,19.1969
2023-04-09T06:01:11.356Z,19.1479
2023-04-09T06:02:13.004Z,19.0702
2023-04-09T06:03:14.777Z,19.0825
2023-04-09T06:04:16.406Z,19.2063
2023-04-09T06:05:18.581Z,19.3188
2023-04-09T06:06:19.632Z,19.3540
2023-04-09T06:07:21.241Z,19.2817
2023-04-09T06:08:22.958Z,19.2183
2023-04-09T06:09:24.612Z,19.2492
2023-04-09T06:10:26.537Z,19.3378
2023-04-09T06:11:28.009Z,19.3981
2023-04-09T06:12:29.911Z,19.3920
2023-04-09T06:13:31.202Z,19.3032
2023-04-09T06:14:32.882Z,19.2602
2023-04-09T06:15:34.555Z,19.3432
2023-04-09T06:16:36.130Z,19.4854
2023-04-09T06:17:37.804Z,19.5713
2023-04-09T06:18:39.611Z,19.5561
2023-04-09T06:19:41.170Z,19.4518
2023-04-09T06:20:42.911Z,19.4042
2023-04-09T06:21:44.297Z,19.4852
2023-04-09T06:22:45.987Z,19.6050
2023-04-09T06:23:47.642Z,19.6811
2023-04-09T06:24:49.279Z,19.6382
2023-04-09T06:25:50.972Z,19.5126
2023-04-09T06:26:52.607Z,19.4473
2023-04-09T06:27:54.212Z,19.4966
2023-04-09T06:28:55.877Z,19.5695
2023-04-09T06:29:57.550Z,19.6384
2023-04-09T06:30:59.300Z,19.6423
2023-04-09T06:32:00.786Z,19.5632
2023-04-09T06:33:02.572Z,19.5180
2023-04-09T06:34:04.103Z,19.6196
2023-04-09T06:35:05.826Z,19.7418
2023-04-09T06:36:08.484Z,19.8167
2023-04-09T06:37:09.021Z,19.7890
2023-04-09T06:38:11.362Z,19.7026
2023-04-09T06:39:13.168Z,19.6798
2023-04-09T06:40:14.071Z,19.7500
2023-04-09T06:41:15.930Z,19.8566
2023-04-09T06:42:17.373Z,19.9122
2023-04-09T06:43:18.964Z,19.8706
2023-04-09T06:44:20.670Z,19.7829
2023-04-09T06:45:22.247Z,19.7452
2023-04-09T06:46:24.033Z,19.8020
2023-04-09T06:47:25.621Z,19.9000
2023-04-09T06:48:27.930Z,19.9790
2023-04-09T06:49:28.893Z,19.9772
2023-04-09T06:50:30.557Z,19.9132
2023-04-09T06:51:32.541Z,19.8825
2023-04-09T06:52:33.937Z,19.8759
2023-04-09T06:53:35.519Z,19.9604
2023-04-09T06:54:37.991Z,20.0393
2023-04-09T06:55:38.885Z,20.0616
2023-04-09T06:56:40.962Z,19.9687
2023-04-09T06:57:42.143Z,19.8698
2023-04-09T06:58:43.837Z,19.8749
2023-04-09T06:59:45.486Z,19.9811
2023-04-09T07:00:47.089Z,20.0910
2023-04-09T07:01:49.385Z,20.1169
2023-04-09T07:02:50.673Z,19.9964
2023-04-09T07:03:52.625Z,19.8810
2023-04-09T07:04:53.729Z,19.9249
2023-04-09T07:05:55.432Z,20.0722
2023-04-09T07:06:58.150Z,20.1853
2023-04-09T07:07:58.703Z,20.1969
2023-04-09T07:09:00.461Z,20.0706
2023-04-09T07:10:02.019Z,19.9898
2023-04-09T07:11:03.669Z,20.0451
2023-04-09T07:12:05.386Z,20.1825
2023-04-09T07:13:07.495Z,20.2706
2023-04-09T07:14:08.625Z,20.2688
2023-04-09T07:15:10.318Z,20.1490
2023-04-09T07:16:11.943Z,20.0492
2023-04-09T07:17:13.634Z,20.0912
2023-04-09T07:18:15.265Z,20.2516
2023-04-09T07:19:16.777Z,20.3776
2023-04-09T07:20:18.566Z,20.3926
2023-04-09T07:21:20.165Z,20.2745
2023-04-09T07:22:22.128Z,20.1879
2023-04-09T07:23:23.577Z,20.2093
2023-04-09T07:24:25.301Z,20.2989
2023-04-09T07:25:26.778Z,20.3800
2023-04-09T07:26:28.509Z,20.3880
2023-04-09T07:27:30.101Z,20.2551
2023-04-09T07:28:31.757Z,20.1752
2023-04-09T07:29:33.586Z,20.2795
2023-04-09T07:30:35.013Z,20.4384
2023-04-09T07:31:36.619Z,20.5251
2023-04-09T07:32:38.444Z,20.4459
2023-04-09T07:33:39.957Z,20.3128
2023-04-09T07:34:41.597Z,20.3064
2023-04-09T07:35:43.216Z,20.4226
2023-04-09T07:36:44.954Z,20.5088
2023-04-09T07:37:47.003Z,20.5092
2023-04-09T07:38:48.551Z,20.3714
2023-04-09T07:39:49.888Z,20.2776
2023-04-09T07:40:51.902Z,20.3685
2023-04-09T07:41:53.148Z,20.5465
2023-04-09T07:42:54.834Z,20.6468
2023-04-09T07:43:56.565Z,20.5303
2023-04-09T07:44:58.250Z,20.3257
2023-04-09T07:45:59.853Z,20.3010
2023-04-09T07:47:01.557Z,20.4356
2023-04-09T07:48:03.510Z,20.5943
2023-04-09T07:49:04.943Z,20.6433
2023-04-09T07:50:06.351Z,20.4762
2023-04-09T07:51:08.934Z,20.3097
2023-04-09T07:52:09.666Z,20.3673
2023-04-09T07:53:12.004Z,20.5415
2023-04-09T07:54:13.094Z,20.6917
2023-04-09T07:55:15.154Z,20.7247
2023-04-09T07:56:16.223Z,20.5639
2023-04-09T07:57:17.869Z,20.4624
2023-04-09T07:58:19.613Z,20.5447
2023-04-09T07:59:21.217Z,20.7147
2023-04-09T08:00:22.856Z,20.8344
2023-04-09T08:01:24.508Z,20.7490
2023-04-09T08:02:26.364Z,20.4852
2023-04-09T08:03:28.115Z,20.3776
2023-04-09T08:04:29.487Z,20.5215
2023-04-09T08:05:31.142Z,20.6859
2023-04-09T08:06:32.737Z,20.7744
2023-04-09T08:07:34.482Z,20.6456
2023-04-09T08:08:36.103Z,20.4822
2023-04-09T08:09:37.761Z,20.4670
2023-04-09T08:10:39.368Z,20.6063
2023-04-09T08:11:40.984Z,20.7589
2023-04-09T08:12:42.706Z,20.7718
2023-04-09T08:13:44.622Z,20.5673
2023-04-09T08:14:45.940Z,20.3575
2023-04-09T08:15:47.635Z,20.4114
2023-04-09T08:16:49.372Z,20.5994
2023-04-09T08:17:51.497Z,20.7377
2023-04-09T08:18:52.932Z,20.6848
2023-04-09T08:19:54.586Z,20.4482
2023-04-09T08:20:55.839Z,20.3230
2023-04-09T08:21:57.567Z,20.4471
2023-04-09T08:22:59.207Z,20.6346
2023-04-09T08:24:00.833Z,20.7241
2023-04-09T08:25:03.537Z,20.6156
2023-04-09T08:26:04.073Z,20.3746
2023-04-09T08:27:05.748Z,20.2686
2023-04-09T08:28:07.410Z,20.4032
2023-04-09T08:29:09.109Z,20.5680
2023-04-09T08:30:10.730Z,20.6683
2023-04-09T08:31:12.448Z,20.5510
2023-04-09T08:32:14.045Z,20.3164
2023-04-09T08:33:15.641Z,20.3075
2023-04-09T08:34:17.584Z,20.5014
2023-04-09T08:35:19.058Z,20.6735
2023-04-09T08:36:21.593Z,20.7469
2023-04-09T08:37:22.419Z,20.5746
2023-04-09T08:38:24.094Z,20.3577
2023-04-09T08:39:25.792Z,20.3944
2023-04-09T08:40:27.581Z,20.5295
2023-04-09T08:41:28.944Z,20.6642
2023-04-09T08:42:30.545Z,20.7037
2023-04-09T08:43:52.531Z,20.5153
2023-04-09T08:44:33.963Z,20.3367
2023-04-09T08:45:35.604Z,20.3969
2023-04-09T08:46:37.147Z,20.6122
2023-04-09T08:47:38.934Z,20.7768
2023-04-09T08:48:40.586Z,20.7932
2023-04-09T08:49:43.034Z,20.5774
2023-04-09T08:50:43.767Z,20.3951
2023-04-09T08:51:45.450Z,20.4217
2023-04-09T08:52:47.132Z,20.5884
2023-04-09T08:53:48.723Z,20.7032
2023-04-09T08:54:50.447Z,20.6623
2023-04-09T08:55:53.152Z,20.4385
2023-04-09T08:56:53.812Z,20.3369
2023-04-09T08:57:56.094Z,20.4664
2023-04-09T08:58:57.139Z,20.6857
2023-04-09T08:59:59.121Z,20.8318
2023-04-09T09:01:00.488Z,20.7486
2023-04-09T09:02:02.087Z,20.4902
2023-04-09T09:03:03.824Z,20.4254
2023-04-09T09:04:05.380Z,20.6036
2023-04-09T09:05:07.163Z,20.8174
2023-04-09T09:06:08.646Z,20.9214
2023-04-09T09:07:10.376Z,20.7675
2023-04-09T09:08:12.607Z,20.4937
2023-04-09T09:09:13.576Z,20.4628
2023-04-09T09:10:15.714Z,20.6796
2023-04-09T09:11:16.933Z,20.8881
2023-04-09T09:12:18.654Z,20.9622
2023-04-09T09:13:20.266Z,20.7717
2023-04-09T09:14:21.947Z,20.5407
2023-04-09T09:15:23.714Z,20.5967
2023-04-09T09:16:25.187Z,20.8500
2023-04-09T09:17:26.947Z,21.0200
2023-04-09T09:18:28.521Z,21.0040
2023-04-09T09:19:30.656Z,20.7173
2023-04-09T09:20:32.326Z,20.5857
2023-04-09T09:21:33.591Z,20.6854
2023-04-09T09:22:35.148Z,20.9116
2023-04-09T09:23:36.880Z,21.0652
2023-04-09T09:24:38.494Z,21.0024
2023-04-09T09:25:40.128Z,20.7192
2023-04-09T09:26:41.850Z,20.6028
2023-04-09T09:27:43.402Z,20.7791
2023-04-09T09:28:45.050Z,21.0024
2023-04-09T09:29:46.714Z,21.1326
2023-04-09T09:30:49.526Z,21.0038
2023-04-09T09:31:50.079Z,20.7064
2023-04-09T09:32:51.765Z,20.6615
2023-04-09T09:33:53.308Z,20.8735
2023-04-09T09:34:54.874Z,21.0883
2023-04-09T09:35:56.730Z,21.1663
2023-04-09T09:36:58.268Z,20.9748
2023-04-09T09:37:59.954Z,20.7413
2023-04-09T09:39:01.586Z,20.7148
2023-04-09T09:40:03.180Z,20.9059
2023-04-09T09:41:04.878Z,21.1014
2023-04-09T09:42:06.482Z,21.1405
2023-04-09T09:43:08.205Z,20.9104
2023-04-09T09:44:09.701Z,20.7263
2023-04-09T09:45:11.454Z,20.7787
2023-04-09T09:46:13.231Z,20.9898
2023-04-09T09:47:14.836Z,21.1663
2023-04-09T09:48:16.501Z,21.1271
2023-04-09T09:49:18.112Z,20.8750
2023-04-09T09:50:19.693Z,20.7483
2023-04-09T09:51:21.394Z,20.8623
2023-04-09T09:52:23.084Z,21.0964
2023-04-09T09:53:24.665Z,21.2425
2023-04-09T09:54:26.365Z,21.1525
2023-04-09T09:55:28.144Z,20.8943
2023-04-09T09:56:29.792Z,20.7911
2023-04-09T09:57:31.421Z,20.9275
2023-04-09T09:58:33.094Z,21.1391
2023-04-09T09:59:34.674Z,21.2542
2023-04-09T10:00:36.359Z,21.1076
2023-04-09T10:01:38.148Z,20.8609
2023-04-09T10:02:39.699Z,20.8345
2023-04-09T10:03:41.372Z,20.9998
2023-04-09T10:04:43.068Z,21.2107
2023-04-09T10:05:44.583Z,21.2716
2023-04-09T10:06:46.354Z,21.0609
2023-04-09T10:07:47.885Z,20.8271
2023-04-09T10:08:49.710Z,20.8295
2023-04-09T10:09:51.214Z,21.0643
2023-04-09T10:10:52.991Z,21.2886
2023-04-09T10:11:54.670Z,21.3256
2023-04-09T10:12:56.476Z,21.0880
2023-04-09T10:13:57.795Z,20.8819
2023-04-09T10:14:59.510Z,20.9254
2023-04-09T10:16:01.144Z,21.1197
2023-04-09T10:17:02.856Z,21.3077
2023-04-09T10:18:04.475Z,21.3332
2023-04-09T10:19:06.075Z,21.0892
2023-04-09T10:20:07.722Z,20.8780
2023-04-09T10:21:09.369Z,20.9579
2023-04-09T10:22:11.052Z,21.2014
2023-04-09T10:23:13.215Z,21.4046
2023-04-09T10:24:14.278Z,21.4020
2023-04-09T10:25:15.984Z,21.1715
2023-04-09T10:26:17.716Z,21.0051
2023-04-09T10:27:19.390Z,21.0071
2023-04-09T10:28:20.963Z,21.2122
2023-04-09T10:29:22.650Z,21.4049
2023-04-09T10:30:24.220Z,21.4168
2023-04-09T10:31:25.908Z,21.1725
2023-04-09T10:32:28.604Z,20.9732
2023-04-09T10:33:29.245Z,21.0219
2023-04-09T10:34:30.939Z,21.2451
2023-04-09T10:35:32.475Z,21.4451
2023-04-09T10:36:34.165Z,21.4862
2023-04-09T10:37:35.873Z,21.2706
2023-04-09T10:38:37.471Z,21.0746
2023-04-09T10:39:39.161Z,21.1052
2023-04-09T10:40:40.735Z,21.3186
2023-04-09T10:41:42.442Z,21.5136
2023-04-09T10:42:44.143Z,21.5328
2023-04-09T10:43:45.751Z,21.2977
2023-04-09T10:44:47.415Z,21.0647
2023-04-09T10:45:49.061Z,21.1390
2023-04-09T10:46:50.803Z,21.3691
2023-04-09T10:47:52.842Z,21.5881
2023-04-09T10:48:54.131Z,21.6115
2023-04-09T10:49:55.708Z,21.3865
2023-04-09T10:50:57.322Z,21.2309
2023-04-09T10:51:59.000Z,21.2901
2023-04-09T10:53:00.735Z,21.4981
2023-04-09T10:54:02.298Z,21.6914
2023-04-09T10:55:03.913Z,21.7040
2023-04-09T10:56:05.562Z,21.4786
2023-04-09T10:57:07.307Z,21.2945
2023-04-09T10:58:11.296Z,21.3799
2023-04-09T10:59:10.595Z,21.6170
2023-04-09T11:00:12.541Z,21.8034
2023-04-09T11:01:13.851Z,21.8005
2023-04-09T11:02:15.564Z,21.5499
2023-04-09T11:03:17.370Z,21.3763
2023-04-09T11:04:18.648Z,21.3858
2023-04-09T11:05:20.320Z,21.6255
2023-04-09T11:06:21.984Z,21.8382
2023-04-09T11:07:23.692Z,21.8301
2023-04-09T11:08:25.313Z,21.5727
2023-04-09T11:09:26.910Z,21.3370
2023-04-09T11:10:28.578Z,21.4403
2023-04-09T11:11:30.241Z,21.6815
2023-04-09T11:12:31.878Z,21.8513
2023-04-09T11:13:33.541Z,21.8690
2023-04-09T11:14:35.180Z,21.6755
2023-04-09T11:15:36.826Z,21.5335
2023-04-09T11:16:38.664Z,21.5828
2023-04-09T11:17:40.277Z,21.7659
2023-04-09T11:18:42.172Z,21.9350
2023-04-09T11:19:43.504Z,21.9243
2023-04-09T11:20:45.078Z,21.6929
2023-04-09T11:21:46.817Z,21.4924
2023-04-09T11:22:48.419Z,21.5690
2023-04-09T11:23:50.155Z,21.7815
2023-04-09T11:24:51.770Z,21.9762
2023-04-09T11:25:53.368Z,21.9585
2023-04-09T11:26:55.092Z,21.7522
2023-04-09T11:27:56.647Z,21.6399
2023-04-09T11:28:59.145Z,21.7545
2023-04-09T11:30:00.134Z,21.9445
2023-04-09T11:31:01.794Z,22.0926
2023-04-09T11:32:03.262Z,21.9831
2023-04-09T11:33:05.129Z,21.7558
2023-04-09T11:34:06.667Z,21.6392
2023-04-09T11:35:08.243Z,21.7956
2023-04-09T11:36:09.854Z,21.9551
2023-04-09T11:37:11.546Z,22.0424
2023-04-09T11:38:14.048Z,21.8294
2023-04-09T11:39:15.145Z,21.6247
2023-04-09T11:40:16.540Z,21.6917
2023-04-09T11:41:18.188Z,21.9893
2023-04-09T11:42:19.755Z,22.2908
2023-04-09T11:43:21.459Z,22.3061
2023-04-09T11:44:23.701Z,22.0304
2023-04-09T11:45:24.722Z,21.7938
2023-04-09T11:46:27.456Z,21.8380
2023-04-09T11:47:28.045Z,22.0560
2023-04-09T11:48:29.784Z,22.3146
2023-04-09T11:49:32.245Z,22.3414
2023-04-09T11:50:33.027Z,22.0751
2023-04-09T11:51:34.749Z,21.8709
2023-04-09T11:52:36.452Z,21.9063
2023-04-09T11:53:38.073Z,22.1058
2023-04-09T11:54:39.740Z,22.3374
2023-04-09T11:55:41.378Z,22.3806
2023-04-09T11:56:43.075Z,22.1625
2023-04-09T11:57:44.681Z,21.9294
2023-04-09T11:58:46.327Z,21.9309
2023-04-09T11:59:48.129Z,22.1556
2023-04-09T12:00:49.676Z,22.4356
2023-04-09T12:01:51.515Z,22.5128
2023-04-09T12:02:53.301Z,22.2857
2023-04-09T12:03:54.675Z,22.0675
2023-04-09T12:04:56.620Z,22.0812
2023-04-09T12:05:57.764Z,22.2721
2023-04-09T12:06:59.482Z,22.4924
2023-04-09T12:08:01.067Z,22.5342
2023-04-09T12:09:02.831Z,22.3164
2023-04-09T12:10:04.560Z,22.0680
2023-04-09T12:11:06.076Z,22.0756
2023-04-09T12:12:08.680Z,22.2928
2023-04-09T12:13:09.370Z,22.5299
2023-04-09T12:14:11.033Z,22.6451
2023-04-09T12:15:12.806Z,22.4667
2023-04-09T12:16:14.577Z,22.1979
2023-04-09T12:17:15.963Z,22.1414
2023-04-09T12:18:17.693Z,22.3184
2023-04-09T12:19:19.333Z,22.5611
2023-04-09T12:20:21.209Z,22.7422
2023-04-09T12:21:22.572Z,22.6161
2023-04-09T12:22:24.226Z,22.3657
2023-04-09T12:23:25.987Z,22.2808
2023-04-09T12:24:27.571Z,22.4474
2023-04-09T12:25:29.271Z,22.6947